Time;durP1;ratioP1;P1;durP2;ratioP2;P2;SDS_P1;SDS_P2;PMS_P1;PMS_P2;Temp;Humidity;BMP_temperature;BMP_pressure;BME280_temperature;BME280_humidity;BME280_pressure;Samples;Min_cycle;Max_cycle;Signal;HPM_P1;HPM_P2
2023/01/25 00:00:09;;;;;;;179.80;52.67;;;0.70;99.90;;;;;;6277348;22;20023;-90
2023/01/25 00:02:57;;;;;;;199.57;57.50;;;0.70;99.90;;;;;;6278610;22;20439;-90
2023/01/25 00:05:44;;;;;;;178.07;53.13;;;0.70;99.90;;;;;;6278016;22;20032;-89
2023/01/25 00:08:31;;;;;;;172.10;52.78;;;0.70;99.90;;;;;;6281051;22;20434;-89
2023/01/25 00:11:20;;;;;;;158.95;53.90;;;0.70;99.90;;;;;;6281190;22;20445;-89
2023/01/25 00:14:11;;;;;;;172.63;54.72;;;0.70;99.90;;;;;;6263428;22;20071;-90
2023/01/25 00:17:03;;;;;;;173.60;53.55;;;0.70;99.90;;;;;;6268792;22;20043;-89
2023/01/25 00:19:50;;;;;;;179.40;54.25;;;0.70;99.90;;;;;;6264227;22;20055;-89
2023/01/25 00:22:37;;;;;;;167.73;51.13;;;0.70;99.90;;;;;;6279869;22;20388;-89
2023/01/25 00:25:24;;;;;;;177.23;52.17;;;0.70;99.90;;;;;;6277411;22;20033;-88
2023/01/25 00:28:14;;;;;;;171.45;52.22;;;0.70;99.90;;;;;;6279468;22;20127;-89
2023/01/25 00:31:03;;;;;;;179.10;54.35;;;0.70;99.90;;;;;;6257812;22;20099;-89
2023/01/25 00:34:26;;;;;;;160.77;51.70;;;0.70;99.90;;;;;;6282686;22;20038;-90
2023/01/25 00:37:39;;;;;;;178.88;54.58;;;0.70;99.90;;;;;;6280375;22;20318;-89
2023/01/25 00:40:26;;;;;;;;;;;0.70;99.90;;;;;;6281340;22;20430;-89
2023/01/25 00:43:14;;;;;;;179.90;52.17;;;0.70;99.90;;;;;;6277515;22;19968;-90
2023/01/25 00:46:01;;;;;;;161.60;51.95;;;0.70;99.90;;;;;;6276296;22;20050;-88
2023/01/25 00:48:48;;;;;;;173.40;51.50;;;0.70;99.90;;;;;;6276295;22;20517;-91
2023/01/25 00:51:35;;;;;;;167.20;54.20;;;0.70;99.90;;;;;;6278282;22;20095;-89
2023/01/25 00:54:23;;;;;;;180.43;53.25;;;0.70;99.90;;;;;;6276767;22;20027;-90
2023/01/25 00:57:11;;;;;;;163.02;51.90;;;0.70;99.90;;;;;;6278455;22;20027;-88
2023/01/25 00:59:58;;;;;;;179.60;54.53;;;0.70;99.90;;;;;;6257354;22;20419;-90
2023/01/25 01:02:45;;;;;;;174.02;55.15;;;0.70;99.90;;;;;;6261595;22;20024;-89
2023/01/25 01:05:35;;;;;;;160.27;49.50;;;0.70;99.90;;;;;;6290499;22;20024;-87
2023/01/25 01:08:22;;;;;;;162.13;51.17;;;0.70;99.90;;;;;;6293100;22;20039;-90
2023/01/25 01:11:13;;;;;;;162.43;52.83;;;0.80;99.90;;;;;;6277576;22;20106;-90
2023/01/25 01:14:03;;;;;;;179.10;52.17;;;0.80;99.90;;;;;;6253023;22;20046;-88
2023/01/25 01:16:52;;;;;;;161.38;51.95;;;0.70;99.90;;;;;;6276433;22;20051;-90
2023/01/25 01:19:43;;;;;;;161.70;49.88;;;0.70;99.90;;;;;;6278320;22;20023;-89
2023/01/25 01:22:32;;;;;;;171.50;54.30;;;0.70;99.90;;;;;;6254604;22;20101;-90
2023/01/25 01:25:20;;;;;;;163.93;51.25;;;0.70;99.90;;;;;;6254673;22;20046;-90
2023/01/25 01:28:10;;;;;;;157.80;49.85;;;0.80;99.90;;;;;;6255465;22;20097;-88
2023/01/25 01:31:03;;;;;;;151.02;49.83;;;0.80;99.90;;;;;;6277034;22;20446;-90
2023/01/25 01:33:55;;;;;;;153.57;49.80;;;0.80;99.90;;;;;;6255721;22;20019;-89
2023/01/25 01:36:42;;;;;;;153.05;51.60;;;0.70;99.90;;;;;;6282487;22;20094;-88
2023/01/25 01:39:29;;;;;;;148.73;48.38;;;0.70;99.90;;;;;;6272752;22;20054;-89
2023/01/25 01:42:16;;;;;;;154.93;49.33;;;0.80;99.90;;;;;;6269731;22;20047;-89
2023/01/25 01:45:42;;;;;;;139.27;48.30;;;0.80;99.90;;;;;;6292662;22;20067;-89
2023/01/25 01:48:29;;;;;;;153.00;49.03;;;0.70;99.90;;;;;;6293524;22;20145;-82
2023/01/25 01:51:51;;;;;;;147.27;49.45;;;0.80;99.90;;;;;;6303792;22;20028;-85
2023/01/25 01:54:56;;;;;;;149.88;47.78;;;0.80;99.90;;;;;;6296414;22;20091;-83
2023/01/25 01:57:49;;;;;;;148.20;48.83;;;0.80;99.90;;;;;;6280603;22;20011;-86
2023/01/25 02:00:39;;;;;;;147.43;51.45;;;0.80;99.90;;;;;;6299194;22;20489;-86
2023/01/25 02:03:27;;;;;;;149.20;49.70;;;0.80;99.90;;;;;;6296591;22;20016;-89
2023/01/25 02:06:26;;;;;;;147.88;47.88;;;0.80;99.90;;;;;;6279422;22;20020;-89
2023/01/25 02:09:17;;;;;;;141.85;48.22;;;0.80;99.90;;;;;;6256173;22;20027;-89
2023/01/25 02:12:06;;;;;;;143.30;47.47;;;0.80;99.90;;;;;;6258251;22;20042;-88
2023/01/25 02:14:54;;;;;;;144.25;50.33;;;0.80;99.90;;;;;;6253091;22;20042;-87
2023/01/25 02:17:42;;;;;;;152.73;48.55;;;0.80;99.90;;;;;;6278250;22;20028;-88
2023/01/25 02:20:40;;;;;;;153.43;47.40;;;0.80;99.90;;;;;;6278331;22;20024;-90
2023/01/25 02:23:48;;;;;;;145.95;48.70;;;0.80;99.90;;;;;;6279001;22;20081;-89
2023/01/25 02:26:36;;;;;;;137.25;47.53;;;0.80;99.90;;;;;;6255984;22;20426;-90
2023/01/25 02:29:26;;;;;;;145.88;48.83;;;0.80;99.90;;;;;;6277233;22;20246;-89
2023/01/25 02:32:13;;;;;;;142.40;49.42;;;0.80;99.90;;;;;;6277675;22;20038;-89
2023/01/25 02:35:00;;;;;;;141.30;48.08;;;0.80;99.90;;;;;;6256212;22;20042;-88
2023/01/25 02:37:51;;;;;;;151.40;50.40;;;0.80;99.90;;;;;;6276465;22;20034;-89
2023/01/25 02:40:56;;;;;;;137.23;48.47;;;0.80;99.90;;;;;;6256386;22;20047;-89
2023/01/25 02:43:43;;;;;;;135.57;45.58;;;0.80;99.90;;;;;;6256361;22;20033;-90
2023/01/25 02:46:34;;;;;;;126.78;45.53;;;0.80;99.90;;;;;;6276899;22;20039;-89
2023/01/25 02:49:22;;;;;;;134.88;47.58;;;0.80;99.90;;;;;;6279558;22;20121;-89
2023/01/25 02:52:09;;;;;;;129.68;46.47;;;0.70;99.90;;;;;;6278460;22;20089;-88
2023/01/25 02:54:56;;;;;;;143.20;48.72;;;0.80;99.90;;;;;;6267045;22;20043;-89
2023/01/25 02:57:46;;;;;;;138.20;48.97;;;0.80;99.90;;;;;;6279141;22;20020;-90
2023/01/25 03:00:33;;;;;;;129.50;46.42;;;0.70;99.90;;;;;;6281543;22;20095;-89
2023/01/25 03:03:20;;;;;;;132.25;48.40;;;0.70;99.90;;;;;;6287782;22;20050;-89
2023/01/25 03:06:32;;;;;;;126.63;47.35;;;0.70;99.90;;;;;;6298934;22;20070;-90
2023/01/25 03:09:22;;;;;;;141.23;48.33;;;0.70;99.90;;;;;;6296188;22;20039;-88
2023/01/25 03:12:09;;;;;;;133.68;46.92;;;0.70;99.90;;;;;;6293971;22;20042;-89
2023/01/25 03:14:57;;;;;;;140.82;48.28;;;0.80;99.90;;;;;;6282722;22;20114;-88
2023/01/25 03:17:47;;;;;;;141.38;47.05;;;0.80;99.90;;;;;;6278444;22;20023;-88
2023/01/25 03:20:34;;;;;;;140.52;48.25;;;0.70;99.90;;;;;;6277636;22;20020;-90
2023/01/25 03:23:22;;;;;;;131.93;46.25;;;0.70;99.90;;;;;;6279909;22;20161;-89
2023/01/25 03:26:17;;;;;;;139.90;48.75;;;0.80;99.90;;;;;;6276658;22;20034;-88
2023/01/25 03:29:08;;;;;;;138.65;47.53;;;0.70;99.90;;;;;;6279913;22;20028;-89
2023/01/25 03:31:55;;;;;;;138.98;47.13;;;0.70;99.90;;;;;;6276430;22;20020;-90
2023/01/25 03:34:43;;;;;;;133.88;47.90;;;0.70;99.90;;;;;;6278641;22;20038;-88
2023/01/25 03:37:30;;;;;;;129.95;47.30;;;0.70;99.90;;;;;;6276651;22;20027;-90
2023/01/25 03:40:17;;;;;;;132.93;46.15;;;0.70;99.90;;;;;;6278016;22;20163;-88
2023/01/25 03:43:07;;;;;;;131.80;47.13;;;0.70;99.90;;;;;;6276573;22;20415;-89
2023/01/25 03:45:59;;;;;;;130.75;46.25;;;0.70;99.90;;;;;;6279290;22;20081;-89
2023/01/25 03:48:46;;;;;;;128.48;46.35;;;0.70;99.90;;;;;;6277690;22;20032;-89
2023/01/25 03:51:34;;;;;;;130.82;45.78;;;0.70;99.90;;;;;;6280266;22;20131;-90
2023/01/25 03:54:21;;;;;;;142.20;46.25;;;0.70;99.90;;;;;;6277389;22;20030;-89
2023/01/25 03:57:09;;;;;;;129.07;47.25;;;0.70;99.90;;;;;;6276953;22;20431;-90
2023/01/25 03:59:56;;;;;;;121.20;43.47;;;0.70;99.90;;;;;;6278911;22;20031;-88
2023/01/25 04:02:43;;;;;;;131.85;44.70;;;0.70;99.90;;;;;;6277008;22;20024;-89
2023/01/25 04:05:31;;;;;;;123.75;43.60;;;0.80;99.90;;;;;;6278747;22;20104;-90
2023/01/25 04:08:18;;;;;;;116.75;43.47;;;0.70;99.90;;;;;;6278073;22;20027;-89
2023/01/25 04:11:10;;;;;;;118.53;41.97;;;0.70;99.90;;;;;;6278223;22;20028;-91
2023/01/25 04:14:00;;;;;;;119.80;41.38;;;0.80;99.90;;;;;;6277093;22;20077;-87
2023/01/25 04:16:47;;;;;;;109.35;40.42;;;0.70;99.90;;;;;;6278553;22;20055;-90
2023/01/25 04:19:37;;;;;;;113.20;42.03;;;0.70;99.90;;;;;;6277830;22;20024;-90
2023/01/25 04:22:24;;;;;;;121.25;44.17;;;0.70;99.90;;;;;;6278760;22;20024;-89
2023/01/25 04:25:12;;;;;;;113.35;42.47;;;0.70;99.90;;;;;;6276795;22;20038;-89
2023/01/25 04:27:59;;;;;;;117.43;44.10;;;0.80;99.90;;;;;;6276830;22;20055;-88
2023/01/25 04:30:46;;;;;;;107.40;39.03;;;0.80;99.90;;;;;;6276742;22;20028;-89
2023/01/25 04:33:34;;;;;;;108.82;40.95;;;0.70;99.90;;;;;;6277650;22;20055;-90
2023/01/25 04:36:21;;;;;;;108.00;40.17;;;0.70;99.90;;;;;;6290733;22;20019;-90
2023/01/25 04:39:08;;;;;;;103.97;41.08;;;0.70;99.90;;;;;;6282478;22;20020;-90
2023/01/25 04:41:55;;;;;;;104.18;39.75;;;0.70;99.90;;;;;;6286049;22;20020;-90
2023/01/25 04:44:45;;;;;;;116.30;42.55;;;0.80;99.90;;;;;;6294336;22;20027;-89
2023/01/25 04:47:32;;;;;;;107.18;39.15;;;0.80;99.90;;;;;;6294627;22;20031;-88
2023/01/25 04:50:19;;;;;;;105.80;39.03;;;0.80;99.90;;;;;;6300177;22;20073;-84
2023/01/25 04:53:08;;;;;;;95.82;37.58;;;0.80;99.90;;;;;;6299932;22;20035;-84
2023/01/25 04:55:57;;;;;;;114.88;40.53;;;0.70;99.90;;;;;;6292888;22;20028;-88
2023/01/25 04:58:44;;;;;;;96.22;37.58;;;0.80;99.90;;;;;;6291872;22;20063;-88
2023/01/25 05:01:38;;;;;;;93.03;36.67;;;0.70;99.90;;;;;;6285116;22;20039;-89
2023/01/25 05:04:29;;;;;;;100.93;38.97;;;0.80;99.90;;;;;;6277011;22;20437;-89
2023/01/25 05:07:16;;;;;;;93.88;37.33;;;0.80;99.90;;;;;;6277693;22;20077;-89
2023/01/25 05:10:05;;;;;;;91.20;37.30;;;0.80;99.90;;;;;;6278392;22;20027;-88
2023/01/25 05:12:55;;;;;;;89.63;36.63;;;0.70;99.90;;;;;;6276681;22;20039;-90
2023/01/25 05:15:42;;;;;;;86.78;33.97;;;0.70;99.90;;;;;;6280938;22;20062;-90
2023/01/25 05:18:29;;;;;;;89.05;35.95;;;0.70;99.90;;;;;;6283172;22;20323;-89
2023/01/25 05:24:41;;;;;;;92.03;35.08;;;0.70;99.90;;;;;;6286921;22;20031;-86
2023/01/25 05:27:31;;;;;;;82.45;34.17;;;0.80;99.90;;;;;;6288415;22;20394;-86
2023/01/25 05:30:20;;;;;;;90.50;35.20;;;0.80;99.90;;;;;;6277635;22;20024;-85
2023/01/25 05:33:07;;;;;;;87.10;36.35;;;0.80;99.90;;;;;;6275777;22;20377;-86
2023/01/25 05:35:57;;;;;;;86.55;34.83;;;0.80;99.90;;;;;;6284539;22;20043;-86
2023/01/25 05:38:44;;;;;;;80.43;34.33;;;0.70;99.90;;;;;;6275903;22;20031;-86
2023/01/25 05:41:32;;;;;;;79.90;32.20;;;0.80;99.90;;;;;;6277483;22;20035;-87
2023/01/25 05:44:19;;;;;;;76.72;32.72;;;0.80;99.90;;;;;;6273507;22;20126;-87
2023/01/25 05:51:21;;;;;;;70.82;30.85;;;0.70;99.90;;;;;;6276036;22;20082;-85
2023/01/25 06:03:02;;;;;;;69.00;29.27;;;0.80;99.90;;;;;;6275914;22;20016;-89
2023/01/25 06:44:33;;;;;;;;;;;;;;;;;;;;;
2023/01/25 06:53:05;;;;;;;;;;;;;;;;;;;;;
2023/01/25 06:56:31;;;;;;;;;;;;;;;;;;;;;
2023/01/25 07:39:46;;;;;;;;;;;;;;;;;;;;;
2023/01/25 07:43:34;;;;;;;53.77;26.43;;;0.70;99.90;;;;;;4930701;28;20066;-85
2023/01/25 07:47:10;;;;;;;53.08;25.48;;;0.70;99.90;;;;;;4909459;29;20186;-86
2023/01/25 07:51:41;;;;;;;53.25;25.17;;;0.70;99.90;;;;;;4872565;29;20068;-86
2023/01/25 08:02:53;;;;;;;49.47;25.15;;;0.80;99.90;;;;;;4798292;29;20051;-84
2023/01/25 08:06:15;;;;;;;48.08;25.33;;;0.80;99.90;;;;;;4814339;29;20211;-84
2023/01/25 08:13:47;;;;;;;43.05;24.08;;;0.70;99.90;;;;;;4764037;30;20051;-85
2023/01/25 10:47:03;;;;;;;51.42;27.65;;;0.90;99.90;;;;;;5700931;23;20050;-87
2023/01/25 11:44:33;;;;;;;45.03;24.67;;;1.00;99.90;;;;;;4842521;29;20186;-84
2023/01/25 12:09:17;;;;;;;;;;;;;;;;;;;;;
2023/01/25 12:21:04;;;;;;;46.88;24.15;;;1.00;99.90;;;;;;4979013;28;20114;-87
2023/01/25 12:24:07;;;;;;;;;;;;;;;;;;;;;
2023/01/25 12:27:00;;;;;;;45.13;25.05;;;1.00;26.30;;;;;;5004544;28;20061;-89
2023/01/25 12:30:34;;;;;;;46.53;24.90;;;1.00;13.70;;;;;;4999642;28;20050;-90
2023/01/25 12:33:32;;;;;;;31.70;18.25;;;1.00;8.30;;;;;;4986714;28;20050;-87
2023/01/25 12:36:33;;;;;;;44.00;24.27;;;1.00;1.00;;;;;;4995494;28;20046;-87
2023/01/25 12:39:28;;;;;;;40.63;23.67;;;1.00;1.00;;;;;;4986261;28;20043;-86
2023/01/25 12:42:20;;;;;;;47.20;25.42;;;1.00;1.00;;;;;;4967624;28;20121;-88
2023/01/25 12:45:24;;;;;;;47.10;26.25;;;1.00;1.00;;;;;;4984897;28;20125;-89
2023/01/25 12:48:46;;;;;;;49.05;26.55;;;1.00;1.00;;;;;;5005452;28;20046;-89
2023/01/25 12:51:40;;;;;;;45.75;25.35;;;1.00;1.00;;;;;;4989915;28;20046;-90
2023/01/25 12:54:38;;;;;;;48.20;25.85;;;0.90;1.00;;;;;;5005551;28;20049;-89
2023/01/25 12:57:32;;;;;;;44.90;25.50;;;0.90;1.00;;;;;;4984788;28;20034;-89
2023/01/25 13:00:28;;;;;;;46.63;25.80;;;1.00;1.00;;;;;;4985617;28;20041;-87
2023/01/25 13:03:28;;;;;;;49.80;26.75;;;0.90;1.00;;;;;;4998844;28;20069;-87
2023/01/25 13:06:30;;;;;;;51.25;28.70;;;0.90;1.00;;;;;;5000968;28;20073;-86
2023/01/25 13:09:29;;;;;;;48.87;26.43;;;0.90;1.00;;;;;;5002184;28;20109;-87
2023/01/25 13:12:16;;;;;;;50.28;28.17;;;0.90;1.00;;;;;;4988532;28;20101;-89
2023/01/25 13:15:38;;;;;;;53.50;29.25;;;0.90;14.40;;;;;;4985809;28;20062;-86
2023/01/25 13:18:29;;;;;;;53.38;29.25;;;0.90;1.00;;;;;;5009013;28;20042;-86
2023/01/25 13:21:35;;;;;;;56.83;31.10;;;0.90;1.00;;;;;;5010581;28;20116;-87
2023/01/25 13:24:31;;;;;;;50.80;27.80;;;0.80;1.00;;;;;;4985420;28;20054;-86
2023/01/25 13:27:26;;;;;;;58.97;29.55;;;0.80;23.50;;;;;;4999870;28;20670;-87
2023/01/25 13:30:30;;;;;;;50.65;27.25;;;0.80;57.00;;;;;;4987424;28;20460;-87
2023/01/25 13:33:33;;;;;;;54.22;28.23;;;0.90;57.30;;;;;;4994659;28;20048;-88
2023/01/25 13:36:47;;;;;;;53.53;28.50;;;0.80;27.50;;;;;;5002006;28;20046;-86
2023/01/25 13:39:34;;;;;;;53.67;28.25;;;0.80;46.40;;;;;;5006229;28;20142;-85
2023/01/25 13:42:35;;;;;;;52.83;27.33;;;0.80;67.50;;;;;;5018584;28;20025;-87
2023/01/25 13:45:22;;;;;;;45.88;27.13;;;0.90;43.30;;;;;;5003817;28;20046;-89
2023/01/25 13:48:10;;;;;;;52.60;27.52;;;0.90;14.00;;;;;;4989145;28;20044;-89
2023/01/25 13:51:04;;;;;;;48.85;25.95;;;0.80;1.00;;;;;;5000056;28;20053;-89
2023/01/25 13:53:56;;;;;;;48.03;25.55;;;0.80;1.00;;;;;;5009153;28;20102;-86
2023/01/25 13:56:44;;;;;;;46.63;26.35;;;0.60;1.00;;;;;;4991818;28;20053;-87
2023/01/25 13:59:31;;;;;;;51.92;27.15;;;0.60;25.20;;;;;;5008265;28;20053;-89
2023/01/25 14:02:22;;;;;;;57.28;29.17;;;0.60;95.60;;;;;;5005626;28;20057;-87
2023/01/25 14:05:23;;;;;;;59.92;29.55;;;0.60;99.90;;;;;;5002760;28;20050;-87
2023/01/25 14:08:12;;;;;;;58.92;29.73;;;0.60;99.90;;;;;;4979554;28;20065;-86
2023/01/25 14:10:59;;;;;;;55.47;29.23;;;0.60;99.90;;;;;;4995001;28;20066;-85
2023/01/25 14:14:24;;;;;;;62.22;31.40;;;0.60;99.90;;;;;;4991730;28;20054;-86
2023/01/25 14:17:17;;;;;;;59.40;29.45;;;0.60;99.90;;;;;;4989949;28;20054;-86
2023/01/25 14:20:19;;;;;;;61.28;31.20;;;0.60;99.90;;;;;;4995422;28;20061;-89
2023/01/25 14:23:26;;;;;;;62.05;31.58;;;0.60;99.90;;;;;;4994576;28;20042;-87
2023/01/25 14:26:17;;;;;;;64.43;31.95;;;0.50;99.90;;;;;;4992067;28;20074;-85
2023/01/25 14:29:18;;;;;;;66.30;31.98;;;0.60;99.90;;;;;;4987596;28;20062;-86
2023/01/25 14:32:25;;;;;;;63.35;32.38;;;0.50;99.90;;;;;;4997838;28;20061;-85
2023/01/25 14:35:42;;;;;;;60.40;32.25;;;0.50;99.90;;;;;;4992723;28;20684;-85
2023/01/25 14:38:42;;;;;;;58.22;30.35;;;0.50;99.90;;;;;;4990239;28;20097;-85
2023/01/25 14:41:33;;;;;;;61.22;31.13;;;0.50;99.90;;;;;;4982959;28;20491;-86
2023/01/25 14:44:22;;;;;;;65.45;33.28;;;0.50;99.90;;;;;;4989111;28;20053;-85
2023/01/25 14:47:29;;;;;;;63.83;32.72;;;0.50;99.90;;;;;;4996735;28;20136;-85
2023/01/25 14:50:37;;;;;;;59.28;30.73;;;0.50;99.90;;;;;;5005071;28;20046;-85
2023/01/25 14:53:45;;;;;;;63.35;31.70;;;0.50;99.90;;;;;;4993939;28;20053;-85
2023/01/25 14:56:47;;;;;;;67.10;30.98;;;0.50;99.90;;;;;;4985533;28;20045;-86
2023/01/25 14:59:49;;;;;;;64.72;32.83;;;0.50;99.90;;;;;;4999062;28;20050;-85
2023/01/25 15:03:15;;;;;;;70.63;34.15;;;0.50;99.90;;;;;;4999386;28;20132;-87
2023/01/25 15:06:07;;;;;;;69.43;33.10;;;0.50;99.90;;;;;;4995152;28;20052;-88
2023/01/25 15:09:00;;;;;;;74.93;34.97;;;0.40;99.90;;;;;;5006321;28;20427;-87
2023/01/25 15:12:04;;;;;;;68.00;33.50;;;0.50;99.90;;;;;;4990799;28;20042;-87
2023/01/25 15:15:01;;;;;;;71.38;34.88;;;0.40;99.90;;;;;;4997307;28;20048;-87
2023/01/25 15:17:54;;;;;;;69.22;34.42;;;0.40;99.90;;;;;;5015703;28;20030;-85
2023/01/25 15:20:43;;;;;;;74.28;35.08;;;0.40;99.90;;;;;;5014669;28;20069;-86
2023/01/25 15:23:33;;;;;;;70.68;35.28;;;0.40;99.90;;;;;;5007830;28;20061;-88
2023/01/25 15:26:36;;;;;;;73.38;35.80;;;0.40;99.90;;;;;;5007407;28;20069;-88
2023/01/25 15:29:27;;;;;;;77.38;36.28;;;0.40;99.90;;;;;;5010948;28;20043;-86
2023/01/25 15:32:28;;;;;;;74.55;32.83;;;0.30;99.90;;;;;;4978710;28;20046;-88
2023/01/25 15:35:18;;;;;;;77.78;35.80;;;0.30;99.90;;;;;;5011643;28;20045;-87
2023/01/25 15:38:09;;;;;;;78.18;36.17;;;0.30;99.90;;;;;;5008056;28;20108;-88
2023/01/25 15:41:00;;;;;;;82.38;36.47;;;0.30;99.90;;;;;;5002685;28;20050;-89
2023/01/25 15:43:49;;;;;;;77.68;36.83;;;0.30;99.90;;;;;;5010016;28;20061;-88
2023/01/25 15:46:40;;;;;;;73.85;35.28;;;0.30;99.90;;;;;;5022105;28;20151;-87
2023/01/25 15:49:30;;;;;;;81.60;37.10;;;0.30;99.90;;;;;;5016655;28;20069;-85
2023/01/25 15:52:19;;;;;;;73.07;36.00;;;0.30;99.90;;;;;;5001663;28;20054;-87
2023/01/25 15:55:08;;;;;;;75.15;35.78;;;0.30;99.90;;;;;;4990043;28;20125;-86
2023/01/25 15:57:58;;;;;;;76.83;36.20;;;0.30;99.90;;;;;;5013715;28;20042;-87
2023/01/25 16:00:49;;;;;;;81.13;37.17;;;0.30;99.90;;;;;;5002046;28;20415;-85
2023/01/25 16:03:40;;;;;;;78.25;36.40;;;0.30;99.90;;;;;;5003329;28;20030;-83
2023/01/25 16:06:46;;;;;;;80.38;33.63;;;0.20;99.90;;;;;;5014346;28;20098;-84
2023/01/25 16:09:34;;;;;;;86.88;35.63;;;0.20;99.90;;;;;;5009868;28;20471;-87
2023/01/25 16:12:24;;;;;;;74.95;34.63;;;0.10;99.90;;;;;;4996682;28;20487;-87
2023/01/25 16:15:16;;;;;;;82.25;34.65;;;0.10;99.90;;;;;;4999600;28;20384;-87
2023/01/25 16:19:00;;;;;;;80.75;36.67;;;0.10;99.90;;;;;;5007308;28;20121;-86
2023/01/25 16:21:54;;;;;;;80.75;35.47;;;0.00;99.90;;;;;;5011449;28;20042;-85
2023/01/25 16:24:46;;;;;;;78.20;34.50;;;0.00;99.90;;;;;;5005539;28;20047;-86
2023/01/25 16:27:37;;;;;;;79.45;34.17;;;0.00;99.90;;;;;;4989841;28;20352;-85
2023/01/25 16:30:35;;;;;;;75.63;32.45;;;0.00;99.90;;;;;;4998286;28;20057;-86
2023/01/25 16:33:23;;;;;;;68.85;28.67;;;0.00;99.90;;;;;;4971401;28;20050;-86
2023/01/25 16:36:19;;;;;;;69.85;29.00;;;-0.10;99.90;;;;;;4983225;28;20117;-86
2023/01/25 16:39:18;;;;;;;69.82;27.50;;;-0.10;99.90;;;;;;4983765;28;20050;-85
2023/01/25 16:42:07;;;;;;;77.22;30.33;;;0.00;99.90;;;;;;4999539;28;20050;-85
2023/01/25 16:44:59;;;;;;;75.53;28.02;;;-0.10;99.90;;;;;;4990907;28;20042;-87
2023/01/25 16:47:54;;;;;;;77.97;31.88;;;-0.10;99.90;;;;;;5001799;28;20081;-84
2023/01/25 16:50:45;;;;;;;80.43;32.67;;;0.00;99.90;;;;;;4985281;28;20062;-86
2023/01/25 16:53:33;;;;;;;80.97;32.67;;;0.00;99.90;;;;;;5000504;28;20054;-88
2023/01/25 16:56:23;;;;;;;83.40;32.10;;;0.00;99.90;;;;;;4994037;28;20046;-86
2023/01/25 16:59:11;;;;;;;74.32;30.95;;;-0.10;99.90;;;;;;4991608;28;20049;-85
2023/01/25 17:01:58;;;;;;;81.60;30.73;;;-0.10;99.90;;;;;;4981505;28;20050;-86
2023/01/25 17:04:46;;;;;;;79.63;32.63;;;-0.10;99.90;;;;;;4988766;28;20057;-86
2023/01/25 17:07:34;;;;;;;80.00;31.90;;;-0.10;99.90;;;;;;4993821;28;20061;-86
2023/01/25 17:10:21;;;;;;;90.30;35.05;;;-0.10;99.90;;;;;;4979825;28;20054;-85
2023/01/25 17:13:10;;;;;;;86.93;33.67;;;-0.20;99.90;;;;;;4978210;28;20058;-85
2023/01/25 17:15:59;;;;;;;78.57;32.30;;;-0.10;99.90;;;;;;4976849;28;20193;-85
2023/01/25 17:18:51;;;;;;;87.63;33.15;;;-0.10;99.90;;;;;;4978908;28;20452;-85
2023/01/25 17:21:39;;;;;;;90.25;34.15;;;-0.10;99.90;;;;;;4993329;28;20134;-86
2023/01/25 17:24:27;;;;;;;91.95;32.53;;;-0.10;99.90;;;;;;4975953;28;20034;-85
2023/01/25 17:27:17;;;;;;;84.10;32.63;;;-0.10;99.90;;;;;;4995294;28;20053;-86
2023/01/25 17:30:08;;;;;;;88.13;33.92;;;-0.10;99.90;;;;;;4997642;28;20140;-86
2023/01/25 17:32:56;;;;;;;90.55;34.70;;;0.00;99.90;;;;;;4978154;28;20046;-86
2023/01/25 17:35:43;;;;;;;84.95;31.70;;;0.00;99.90;;;;;;4991906;28;20054;-86
2023/01/25 17:38:33;;;;;;;82.18;34.08;;;-0.10;99.90;;;;;;4995052;28;20460;-87
2023/01/25 17:41:20;;;;;;;85.22;32.30;;;-0.10;99.90;;;;;;5005742;28;20073;-86
2023/01/25 17:44:08;;;;;;;63.55;27.95;;;-0.10;99.90;;;;;;4989589;28;20047;-86
2023/01/25 17:46:57;;;;;;;63.35;27.42;;;-0.10;99.90;;;;;;4990248;28;20049;-87
2023/01/25 17:49:45;;;;;;;64.50;27.42;;;-0.20;99.90;;;;;;4972875;28;20137;-85
2023/01/25 17:52:32;;;;;;;54.03;25.02;;;-0.10;99.90;;;;;;4993879;28;20070;-85
2023/01/25 17:55:20;;;;;;;57.30;24.65;;;-0.20;99.90;;;;;;4992941;28;20065;-87
2023/01/25 17:58:09;;;;;;;67.53;28.05;;;-0.20;99.90;;;;;;4994289;28;20085;-85
2023/01/25 18:00:56;;;;;;;62.00;27.92;;;-0.10;99.90;;;;;;4997174;28;20479;-87
2023/01/25 18:03:59;;;;;;;69.15;28.17;;;-0.10;99.90;;;;;;4993802;28;20464;-86
2023/01/25 18:06:47;;;;;;;76.40;33.15;;;-0.10;99.90;;;;;;4976427;28;20054;-85
2023/01/25 18:09:37;;;;;;;51.10;25.15;;;-0.10;99.90;;;;;;4976243;28;20050;-86
2023/01/25 18:12:24;;;;;;;59.47;25.75;;;-0.10;99.90;;;;;;4981570;28;20046;-86
2023/01/25 18:15:11;;;;;;;55.50;26.00;;;-0.10;99.90;;;;;;4993760;28;20108;-84
2023/01/25 18:18:02;;;;;;;61.90;26.30;;;-0.10;99.90;;;;;;4990246;28;20046;-85
2023/01/25 18:20:49;;;;;;;56.47;24.73;;;-0.10;99.90;;;;;;4976775;28;20069;-84
2023/01/25 18:23:39;;;;;;;61.78;26.80;;;-0.10;99.90;;;;;;4987547;28;20400;-84
2023/01/25 18:26:29;;;;;;;59.75;26.85;;;-0.20;99.90;;;;;;4979877;28;20042;-84
2023/01/25 18:29:17;;;;;;;54.38;25.35;;;-0.10;99.90;;;;;;5000280;28;20058;-86
2023/01/25 18:32:05;;;;;;;49.70;24.45;;;-0.10;99.90;;;;;;4996688;28;20042;-85
2023/01/25 18:34:52;;;;;;;58.47;26.52;;;-0.10;99.90;;;;;;4994853;28;20184;-85
2023/01/25 18:37:44;;;;;;;60.72;27.02;;;-0.10;99.90;;;;;;4995142;28;20054;-85
2023/01/25 18:40:32;;;;;;;40.83;20.05;;;0.00;99.90;;;;;;4994804;28;20043;-84
2023/01/25 18:43:20;;;;;;;57.30;24.15;;;-0.10;99.90;;;;;;4993760;28;20122;-85
2023/01/25 18:46:10;;;;;;;56.47;25.10;;;0.00;99.90;;;;;;4988900;28;20042;-84
2023/01/25 18:48:58;;;;;;;50.97;24.92;;;0.00;99.90;;;;;;4980852;28;20150;-83
2023/01/25 18:51:47;;;;;;;57.60;26.00;;;0.00;99.90;;;;;;4997071;28;20117;-84
2023/01/25 18:54:56;;;;;;;62.97;26.83;;;0.00;99.90;;;;;;4995674;28;20173;-83
2023/01/25 18:57:46;;;;;;;57.13;27.05;;;-0.10;99.90;;;;;;4976209;28;20054;-84
2023/01/25 19:00:34;;;;;;;53.88;24.98;;;-0.10;99.90;;;;;;4972240;28;20057;-84
2023/01/25 19:03:23;;;;;;;57.25;26.08;;;-0.10;99.90;;;;;;4994596;28;20201;-84
2023/01/25 19:06:12;;;;;;;54.55;25.67;;;-0.10;99.90;;;;;;4992320;28;20051;-84
2023/01/25 19:09:03;;;;;;;60.58;27.48;;;-0.10;99.90;;;;;;4994360;28;20105;-84
2023/01/25 19:11:51;;;;;;;63.75;27.83;;;-0.10;99.90;;;;;;4988966;28;20057;-84
2023/01/25 19:14:38;;;;;;;53.85;26.25;;;-0.10;99.90;;;;;;4990631;28;20128;-83
2023/01/25 19:17:27;;;;;;;54.40;26.08;;;-0.20;99.90;;;;;;4991681;28;20061;-84
2023/01/25 19:20:17;;;;;;;54.83;27.45;;;-0.10;99.90;;;;;;4993881;28;20460;-84
2023/01/25 19:23:07;;;;;;;62.20;27.98;;;-0.10;99.90;;;;;;4990883;28;20054;-83
2023/01/25 19:25:58;;;;;;;59.10;27.27;;;-0.10;99.90;;;;;;4992041;28;20042;-85
2023/01/25 19:28:48;;;;;;;58.22;27.70;;;-0.10;99.90;;;;;;4977560;28;20053;-85
2023/01/25 19:31:36;;;;;;;55.00;25.65;;;-0.10;99.90;;;;;;4975778;28;20035;-86
2023/01/25 19:34:34;;;;;;;59.42;26.50;;;-0.10;99.90;;;;;;4991749;28;20113;-85
2023/01/25 19:37:22;;;;;;;63.95;29.50;;;0.00;99.90;;;;;;4991247;28;20053;-85
2023/01/25 19:40:11;;;;;;;54.13;28.55;;;-0.10;99.90;;;;;;4975842;28;20057;-84
2023/01/25 19:42:59;;;;;;;64.13;28.73;;;-0.10;99.90;;;;;;4992019;28;20061;-86
2023/01/25 19:45:47;;;;;;;59.17;28.67;;;-0.10;99.90;;;;;;4994876;28;20514;-85
2023/01/25 19:48:35;;;;;;;56.17;27.85;;;-0.10;99.90;;;;;;4986679;28;20066;-84
2023/01/25 19:51:30;;;;;;;62.00;26.70;;;-0.10;99.90;;;;;;4988755;28;20189;-85
2023/01/25 19:54:22;;;;;;;56.90;26.75;;;-0.10;99.90;;;;;;4992795;28;20046;-84
2023/01/25 19:57:10;;;;;;;64.22;29.67;;;-0.10;99.90;;;;;;4995956;28;20054;-84
2023/01/25 19:59:58;;;;;;;55.50;27.38;;;-0.10;99.90;;;;;;4970579;28;20051;-83
2023/01/25 20:02:47;;;;;;;59.10;26.88;;;-0.10;99.90;;;;;;4992351;28;20038;-85
2023/01/25 20:05:34;;;;;;;56.90;27.02;;;-0.10;99.90;;;;;;4995091;28;20466;-84
2023/01/25 20:08:22;;;;;;;58.55;28.10;;;-0.10;99.90;;;;;;4996746;28;20034;-85
2023/01/25 20:11:14;;;;;;;59.65;27.10;;;-0.10;99.90;;;;;;4996644;28;20054;-84
2023/01/25 20:14:09;;;;;;;59.47;27.67;;;-0.10;99.90;;;;;;4984956;28;20397;-86
2023/01/25 20:16:59;;;;;;;56.20;27.98;;;-0.10;99.90;;;;;;4994513;28;20054;-84
2023/01/25 20:19:49;;;;;;;57.67;27.30;;;-0.10;99.90;;;;;;4992649;28;20049;-85
2023/01/25 20:22:37;;;;;;;54.50;27.55;;;-0.10;99.90;;;;;;4996076;28;20049;-84
2023/01/25 20:25:27;;;;;;;61.95;29.75;;;-0.10;99.90;;;;;;4979859;28;20058;-83
2023/01/25 20:28:17;;;;;;;64.07;29.55;;;-0.10;99.90;;;;;;4983630;28;20041;-85
2023/01/25 20:31:04;;;;;;;51.28;26.73;;;-0.10;99.90;;;;;;4981983;28;20108;-84
2023/01/25 20:33:55;;;;;;;58.65;28.77;;;-0.10;99.90;;;;;;4995097;28;20053;-86
2023/01/25 20:36:44;;;;;;;62.78;30.38;;;-0.10;99.90;;;;;;4979536;28;20086;-85
2023/01/25 20:39:32;;;;;;;68.68;30.27;;;-0.10;99.90;;;;;;4997375;28;20096;-85